createdAt,value
2018-09-05T00:00:38.860Z,67
2018-09-05T00:01:29.293Z,67
2018-09-05T00:02:18.698Z,67
2018-09-05T00:03:09.177Z,67
2018-09-05T00:03:58.832Z,66.9
2018-09-05T00:04:49.183Z,66.9
2018-09-05T00:05:38.954Z,66.9
2018-09-05T00:06:29.652Z,66.9
2018-09-05T00:07:19.145Z,66.9
2018-09-05T00:08:09.444Z,66.9
2018-09-05T00:08:59.790Z,66.9
2018-09-05T00:09:49.554Z,66.9
2018-09-05T00:10:39.737Z,66.9
2018-09-05T00:11:29.128Z,66.9
2018-09-05T00:12:19.172Z,66.9
2018-09-05T00:31:41.783Z,66.8
2018-09-05T00:32:31.880Z,66.7
2018-09-05T00:33:21.372Z,66.7
2018-09-05T00:34:11.411Z,66.7
2018-09-05T00:35:01.765Z,66.7
2018-09-05T00:35:51.248Z,66.7
2018-09-05T00:36:42.258Z,66.7
2018-09-05T00:37:31.953Z,66.7
2018-09-05T00:38:22.309Z,66.6
2018-09-05T00:39:11.777Z,66.6
2018-09-05T00:40:01.910Z,66.6
2018-09-05T00:40:51.934Z,66.6
2018-09-05T00:41:42.572Z,66.6
2018-09-05T00:42:32.329Z,66.6
2018-09-05T00:43:22.712Z,66.6
2018-09-05T00:44:12.469Z,66.6
2018-09-05T00:45:02.525Z,66.6
2018-09-05T00:45:52.309Z,66.6
2018-09-05T00:46:42.367Z,66.6
2018-09-05T00:47:33.012Z,66.6
2018-09-05T00:48:21.334Z,66.6
2018-09-05T00:49:12.264Z,66.6
2018-09-05T00:50:02.890Z,66.6
2018-09-05T00:50:52.092Z,66.6
2018-09-05T00:51:43.361Z,66.6
2018-09-05T00:52:33.057Z,66.5
2018-09-05T00:53:22.313Z,66.5
2018-09-05T00:54:13.237Z,66.5
2018-09-05T00:55:03.454Z,66.5
2018-09-05T00:55:53.639Z,66.5
2018-09-05T00:56:43.651Z,66.5
2018-09-05T00:57:33.176Z,66.5
2018-09-05T00:58:22.980Z,66.5
2018-09-05T00:59:13.934Z,66.4
2018-09-05T01:00:03.722Z,66.4
2018-09-05T01:00:53.756Z,66.4
2018-09-05T01:01:43.492Z,66.4
2018-09-05T01:02:33.881Z,66.4
2018-09-05T01:03:23.869Z,66.4
2018-09-05T01:04:13.924Z,66.4
2018-09-05T01:05:03.979Z,66.4
2018-09-05T01:05:54.079Z,66.4
2018-09-05T01:06:44.127Z,66.4
2018-09-05T01:07:34.461Z,66.4
2018-09-05T01:08:24.261Z,66.4
2018-09-05T01:09:14.631Z,66.4
2018-09-05T01:10:04.900Z,66.4
2018-09-05T01:10:54.721Z,66.4
2018-09-05T01:11:45.081Z,66.4
2018-09-05T01:12:33.670Z,66.3
2018-09-05T01:13:25.187Z,66.3
2018-09-05T01:14:14.129Z,66.3
2018-09-05T01:15:04.471Z,66.3
2018-09-05T01:15:54.799Z,66.3
2018-09-05T01:16:44.935Z,66.3
2018-09-05T01:17:34.391Z,66.3
2018-09-05T01:18:25.536Z,66.3
2018-09-05T01:19:15.105Z,66.3
2018-09-05T01:20:05.158Z,66.3
2018-09-05T01:20:55.196Z,66.3
2018-09-05T01:21:45.035Z,66.3
2018-09-05T01:22:35.591Z,66.3
2018-09-05T01:23:25.395Z,66.3
2018-09-05T01:24:15.902Z,66.3
2018-09-05T01:25:05.521Z,66.3
2018-09-05T01:25:55.900Z,66.3
2018-09-05T01:26:45.666Z,66.2
2018-09-05T01:27:36.976Z,66.2
2018-09-05T01:28:25.770Z,66.2
2018-09-05T01:29:16.373Z,66.2
2018-09-05T01:30:05.336Z,66.2
2018-09-05T01:30:55.960Z,66.2
2018-09-05T01:31:46.055Z,66.2
2018-09-05T01:32:36.600Z,66.1
2018-09-05T01:33:26.195Z,66.1
2018-09-05T01:34:16.207Z,66.1
2018-09-05T01:35:06.028Z,66.1
2018-09-05T01:35:56.665Z,66.1
2018-09-05T01:36:45.860Z,66.1
2018-09-05T01:37:37.084Z,66.1
2018-09-05T01:38:25.970Z,66.1
2018-09-05T01:39:17.141Z,66.1
2018-09-05T01:40:06.977Z,66.1
2018-09-05T01:40:57.024Z,66.1
2018-09-05T01:41:47.115Z,66.1
2018-09-05T01:42:36.917Z,66.1
2018-09-05T01:43:26.930Z,66.1
2018-09-05T01:44:17.012Z,66.1
2018-09-05T01:45:06.829Z,66.1
2018-09-05T01:45:57.135Z,66
2018-09-05T01:46:47.489Z,66.1
2018-09-05T01:47:37.548Z,66
2018-09-05T01:48:27.619Z,66
2018-09-05T01:49:17.109Z,66
2018-09-05T01:50:07.455Z,66
2018-09-05T01:50:57.290Z,66
2018-09-05T01:51:47.869Z,66
2018-09-05T01:52:37.369Z,66
2018-09-05T01:53:27.751Z,66
2018-09-05T01:54:18.306Z,65.9
2018-09-05T01:55:07.292Z,66
2018-09-05T01:55:57.639Z,65.9
2018-09-05T01:56:47.977Z,65.9
2018-09-05T01:57:37.771Z,65.9
2018-09-05T01:58:28.097Z,65.9
2018-09-05T01:59:17.891Z,65.9
2018-09-05T02:00:07.939Z,65.9
2018-09-05T02:00:58.577Z,65.9
2018-09-05T02:01:48.703Z,65.9
2018-09-05T02:02:38.710Z,65.9
2018-09-05T02:03:27.914Z,65.9
2018-09-05T02:04:18.552Z,65.9
2018-09-05T02:05:08.648Z,65.9
2018-09-05T02:05:58.123Z,65.9
2018-09-05T02:06:48.191Z,65.9
2018-09-05T02:07:38.230Z,65.8
2018-09-05T02:08:29.935Z,65.9
2018-09-05T02:09:18.965Z,65.8
2018-09-05T02:10:09.569Z,65.8
2018-09-05T02:10:59.073Z,65.8
2018-09-05T02:11:49.131Z,65.8
2018-09-05T02:12:39.196Z,65.8
2018-09-05T02:13:29.263Z,65.8
2018-09-05T02:14:18.750Z,65.8
2018-09-05T02:15:09.665Z,65.8
2018-09-05T02:15:59.455Z,65.8
2018-09-05T02:16:49.542Z,65.8
2018-09-05T02:17:39.297Z,65.8
2018-09-05T02:18:29.097Z,65.8
2018-09-05T02:19:19.731Z,65.8
2018-09-05T02:20:10.051Z,65.8
2018-09-05T02:21:00.123Z,65.8
2018-09-05T02:21:49.979Z,65.7
2018-09-05T02:22:39.675Z,65.7
2018-09-05T02:23:30.014Z,65.7
2018-09-05T02:24:20.098Z,65.7
2018-09-05T02:25:10.956Z,65.7
2018-09-05T02:26:00.508Z,65.7
2018-09-05T02:26:50.592Z,65.7
2018-09-05T02:27:40.601Z,65.7
2018-09-05T02:28:30.704Z,65.7
2018-09-05T02:29:20.473Z,65.7
2018-09-05T02:30:11.056Z,65.6
2018-09-05T02:31:00.934Z,65.6
2018-09-05T02:31:50.413Z,65.6
2018-09-05T02:32:40.720Z,65.6
2018-09-05T02:33:30.890Z,65.6
2018-09-05T02:34:20.573Z,65.6
2018-09-05T02:35:10.920Z,65.6
2018-09-05T02:36:01.288Z,65.6
2018-09-05T02:36:51.312Z,65.6
2018-09-05T02:37:41.114Z,65.6
2018-09-05T02:38:30.917Z,65.6
2018-09-05T02:39:21.268Z,65.6
2018-09-05T02:40:11.603Z,65.6
2018-09-05T02:41:01.139Z,65.6
2018-09-05T02:41:52.044Z,65.6
2018-09-05T02:42:41.526Z,65.6
2018-09-05T02:43:31.680Z,65.6
2018-09-05T02:44:21.668Z,65.5
2018-09-05T02:45:11.952Z,65.5
2018-09-05T02:46:01.984Z,65.5
2018-09-05T02:46:52.099Z,65.5
2018-09-05T02:47:42.167Z,65.5
2018-09-05T02:48:31.679Z,65.5
2018-09-05T02:49:22.360Z,65.4
2018-09-05T02:50:12.395Z,65.4
2018-09-05T02:51:02.146Z,65.4
2018-09-05T02:51:51.675Z,65.4
2018-09-05T02:52:42.012Z,65.4
2018-09-05T02:53:32.342Z,65.4
2018-09-05T02:54:22.422Z,65.4
2018-09-05T02:55:12.205Z,65.4
2018-09-05T02:56:03.009Z,65.4
2018-09-05T02:56:52.600Z,65.4
2018-09-05T02:57:42.981Z,65.4
2018-09-05T02:58:32.239Z,65.4
2018-09-05T02:59:22.497Z,65.4
2018-09-05T03:00:12.882Z,65.4
2018-09-05T03:01:02.603Z,65.4
2018-09-05T03:01:52.688Z,65.4
2018-09-05T03:02:42.745Z,65.4
2018-09-05T03:03:33.402Z,65.3
2018-09-05T03:04:23.174Z,65.4
2018-09-05T03:05:13.539Z,65.3
2018-09-05T03:06:03.311Z,65.3
2018-09-05T03:06:53.473Z,65.3
2018-09-05T03:07:43.704Z,65.3
2018-09-05T03:08:33.504Z,65.3
2018-09-05T03:09:23.690Z,65.3
2018-09-05T03:10:13.089Z,65.3
2018-09-05T03:11:03.709Z,65.3
2018-09-05T03:11:53.561Z,65.3
2018-09-05T03:12:44.076Z,65.3
2018-09-05T03:13:34.179Z,65.3
2018-09-05T03:14:23.653Z,65.3
2018-09-05T03:15:14.298Z,65.3
2018-09-05T03:16:04.071Z,65.3
2018-09-05T03:16:54.101Z,65.2
2018-09-05T03:17:43.383Z,65.3
2018-09-05T03:18:34.003Z,65.3
2018-09-05T03:19:24.620Z,65.2
2018-09-05T03:20:14.410Z,65.2
2018-09-05T03:21:04.770Z,65.2
2018-09-05T03:21:54.563Z,65.2
2018-09-05T03:22:44.663Z,65.2
2018-09-05T03:23:34.646Z,65.2
2018-09-05T03:24:24.461Z,65.2
2018-09-05T03:25:15.496Z,65.1
2018-09-05T03:26:04.843Z,65.2
2018-09-05T03:26:54.655Z,65.1
2018-09-05T03:27:45.038Z,65.1
2018-09-05T03:28:35.332Z,65.1
2018-09-05T03:29:25.393Z,65.1
2018-09-05T03:30:15.775Z,65.1
2018-09-05T03:31:05.179Z,65.1
2018-09-05T03:31:55.655Z,65.1
2018-09-05T03:32:45.317Z,65.1
2018-09-05T03:33:35.474Z,65.1
2018-09-05T03:34:25.496Z,65.1
2018-09-05T03:35:15.894Z,65.1
2018-09-05T03:36:05.884Z,65.1
2018-09-05T03:36:55.712Z,65.1
2018-09-05T03:37:45.750Z,65.1
2018-09-05T03:38:35.796Z,65.1
2018-09-05T03:39:25.308Z,65.1
2018-09-05T03:40:15.947Z,65
2018-09-05T03:41:06.504Z,65.1
2018-09-05T03:41:55.796Z,65
2018-09-05T03:42:46.442Z,65
2018-09-05T03:43:36.469Z,65
2018-09-05T03:44:26.567Z,65
2018-09-05T03:45:16.064Z,64.9
2018-09-05T03:46:06.747Z,65
2018-09-05T03:46:57.163Z,64.9
2018-09-05T03:47:47.157Z,64.9
2018-09-05T03:48:36.934Z,64.9
2018-09-05T03:49:27.235Z,64.9
2018-09-05T03:50:17.306Z,64.9
2018-09-05T03:51:07.001Z,64.9
2018-09-05T03:51:56.879Z,64.9
2018-09-05T03:52:46.339Z,64.9
2018-09-05T03:53:37.279Z,64.9
2018-09-05T03:54:27.109Z,64.9
2018-09-05T03:55:17.145Z,64.9
2018-09-05T03:56:07.184Z,64.9
2018-09-05T03:56:57.563Z,64.9
2018-09-05T03:57:47.342Z,64.9
2018-09-05T03:58:37.653Z,64.9
2018-09-05T03:59:27.703Z,64.9
2018-09-05T04:00:17.768Z,64.9
2018-09-05T04:01:08.083Z,64.9
2018-09-05T04:01:57.643Z,64.8
2018-09-05T04:02:47.931Z,64.8
2018-09-05T04:03:38.013Z,64.8
2018-09-05T04:04:27.323Z,64.8
2018-09-05T04:05:18.213Z,64.8
2018-09-05T04:06:08.215Z,64.8
2018-09-05T04:06:58.346Z,64.8
2018-09-05T04:07:48.563Z,64.8
2018-09-05T04:08:38.422Z,64.8
2018-09-05T04:09:28.197Z,64.8
2018-09-05T04:10:18.286Z,64.8
2018-09-05T04:11:08.616Z,64.8
2018-09-05T04:11:58.849Z,64.8
2018-09-05T04:12:48.451Z,64.8
2018-09-05T04:13:38.794Z,64.8
2018-09-05T04:14:28.597Z,64.7
2018-09-05T04:15:18.082Z,64.8
2018-09-05T04:16:08.423Z,64.7
2018-09-05T04:16:59.846Z,64.7
2018-09-05T04:17:49.131Z,64.7
2018-09-05T04:18:38.967Z,64.7
2018-09-05T04:19:28.521Z,64.7
2018-09-05T04:20:19.416Z,64.7
2018-09-05T04:21:09.134Z,64.7
2018-09-05T04:22:00.291Z,64.6
2018-09-05T04:22:49.893Z,64.6
2018-09-05T04:23:39.398Z,64.6
2018-09-05T04:24:29.671Z,64.6
2018-09-05T04:25:19.210Z,64.6
2018-09-05T04:26:09.704Z,64.6
2018-09-05T04:27:00.014Z,64.6
2018-09-05T04:27:49.931Z,64.6
2018-09-05T04:28:39.729Z,64.6
2018-09-05T04:29:30.145Z,64.6
2018-09-05T04:30:20.526Z,64.6
2018-09-05T04:31:09.947Z,64.6
2018-09-05T04:32:00.240Z,64.6
2018-09-05T04:32:49.715Z,64.6
2018-09-05T04:33:40.129Z,64.6
2018-09-05T04:34:30.121Z,64.6
2018-09-05T04:35:20.488Z,64.6
2018-09-05T04:36:10.220Z,64.6
2018-09-05T04:37:00.314Z,64.5
2018-09-05T04:37:50.663Z,64.5
2018-09-05T04:38:40.665Z,64.5
2018-09-05T04:39:30.549Z,64.5
2018-09-05T04:40:19.997Z,64.5
2018-09-05T04:41:10.909Z,64.5
2018-09-05T04:42:00.163Z,64.5
2018-09-05T04:42:50.247Z,64.5
2018-09-05T05:00:31.171Z,64.3
2018-09-05T05:01:20.956Z,64.2
2018-09-05T05:02:10.784Z,64.2
2018-09-05T05:03:01.341Z,64.2
2018-09-05T05:03:51.078Z,64.1
2018-09-05T05:04:41.915Z,64.1
2018-09-05T05:05:32.529Z,64.1
2018-09-05T05:06:21.315Z,64.1
2018-09-05T05:07:11.636Z,64.1
2018-09-05T05:08:01.738Z,64.1
2018-09-05T05:08:51.777Z,64.1
2018-09-05T05:09:41.846Z,64.1
2018-09-05T05:10:31.915Z,64.1
2018-09-05T05:11:21.900Z,64.1
2018-09-05T05:12:11.701Z,64.1
2018-09-05T05:13:02.067Z,64.1
2018-09-05T05:13:52.556Z,64
2018-09-05T05:14:42.194Z,64.1
2018-09-05T05:15:32.255Z,64.1
2018-09-05T05:16:22.325Z,64
2018-09-05T05:17:12.150Z,64
2018-09-05T05:18:01.915Z,64
2018-09-05T05:18:52.264Z,64
2018-09-05T05:19:42.721Z,64
2018-09-05T05:20:32.738Z,64
2018-09-05T05:21:22.298Z,64
2018-09-05T05:22:12.791Z,64
2018-09-05T05:23:02.089Z,63.9
2018-09-05T05:23:53.050Z,63.9
2018-09-05T05:24:43.283Z,63.9
2018-09-05T05:25:32.756Z,63.9
2018-09-05T05:26:23.097Z,63.9
2018-09-05T05:27:12.894Z,63.9
2018-09-05T05:28:03.267Z,63.9
2018-09-05T05:28:53.292Z,63.9
2018-09-05T05:29:43.473Z,63.9
2018-09-05T05:30:33.459Z,63.9
2018-09-05T05:31:23.271Z,63.9
2018-09-05T05:32:13.316Z,63.9
2018-09-05T05:33:03.605Z,63.9
2018-09-05T05:33:53.787Z,63.9
2018-09-05T05:34:45.816Z,63.8
2018-09-05T05:35:34.492Z,63.8
2018-09-05T05:36:23.757Z,63.8
2018-09-05T05:37:13.481Z,63.8
2018-09-05T05:38:05.127Z,63.8
2018-09-05T05:38:55.424Z,63.8
2018-09-05T05:39:45.934Z,63.8
2018-09-05T05:40:33.949Z,63.8
2018-09-05T05:41:24.491Z,63.8
2018-09-05T05:42:14.039Z,63.8
2018-09-05T05:43:04.096Z,63.8
2018-09-05T05:43:53.913Z,63.8
2018-09-05T05:44:44.227Z,63.8
2018-09-05T05:45:34.086Z,63.8
2018-09-05T05:46:24.354Z,63.8
2018-09-05T05:47:14.706Z,63.8
2018-09-05T05:48:04.183Z,63.8
2018-09-05T05:48:54.258Z,63.8
2018-09-05T05:49:44.871Z,63.8
2018-09-05T05:50:35.031Z,63.7
2018-09-05T05:51:24.746Z,63.7
2018-09-05T05:52:14.816Z,63.7
2018-09-05T05:53:05.148Z,63.7
2018-09-05T05:53:55.229Z,63.7
2018-09-05T05:54:45.271Z,63.6
2018-09-05T05:55:34.501Z,63.6
2018-09-05T05:56:24.844Z,63.6
2018-09-05T05:57:14.725Z,63.6
2018-09-05T05:58:04.981Z,63.6
2018-09-05T05:58:55.051Z,63.6
2018-09-05T05:59:45.678Z,63.6
2018-09-05T06:00:35.775Z,63.6
2018-09-05T06:01:26.068Z,63.6
2018-09-05T06:02:15.580Z,63.6
2018-09-05T06:03:05.630Z,63.6
2018-09-05T06:03:55.450Z,63.6
2018-09-05T06:04:46.007Z,63.6
2018-09-05T06:05:35.827Z,63.6
2018-09-05T06:06:28.434Z,63.6
2018-09-05T06:07:16.002Z,63.5
2018-09-05T06:08:06.024Z,63.5
2018-09-05T06:08:56.373Z,63.5
2018-09-05T06:09:46.202Z,63.5
2018-09-05T06:10:36.226Z,63.5
2018-09-05T06:11:26.840Z,63.5
2018-09-05T06:12:17.403Z,63.5
2018-09-05T06:13:06.677Z,63.5
2018-09-05T06:13:56.509Z,63.4
2018-09-05T06:14:46.254Z,63.4
2018-09-05T06:15:37.652Z,63.4
2018-09-05T06:16:26.384Z,63.4
2018-09-05T06:17:16.942Z,63.4
2018-09-05T06:18:07.722Z,63.4
2018-09-05T06:18:57.176Z,63.4
2018-09-05T06:19:46.922Z,63.4
2018-09-05T06:20:37.009Z,63.4
2018-09-05T06:21:27.079Z,63.4
2018-09-05T06:22:17.396Z,63.4
2018-09-05T06:23:07.214Z,63.4
2018-09-05T06:23:57.659Z,63.4
2018-09-05T06:24:47.351Z,63.4
2018-09-05T06:25:37.341Z,63.4
2018-09-05T06:26:27.481Z,63.4
2018-09-05T06:27:17.961Z,63.4
2018-09-05T06:28:07.881Z,63.3
2018-09-05T06:28:57.641Z,63.3
2018-09-05T06:29:47.703Z,63.3
2018-09-05T06:30:40.289Z,63.3
2018-09-05T06:31:28.375Z,63.3
2018-09-05T06:32:18.158Z,63.3
2018-09-05T06:33:08.255Z,63.3
2018-09-05T06:33:58.318Z,63.3
2018-09-05T06:34:48.085Z,63.3
2018-09-05T06:35:38.506Z,63.3
2018-09-05T06:36:28.491Z,63.3
2018-09-05T06:37:18.865Z,63.3
2018-09-05T06:38:08.033Z,63.3
2018-09-05T06:38:58.591Z,63.3
2018-09-05T06:39:48.806Z,63.3
2018-09-05T06:40:38.542Z,63.3
2018-09-05T06:41:28.895Z,63.3
2018-09-05T06:42:18.433Z,63.3
2018-09-05T06:43:08.499Z,63.2
2018-09-05T06:43:58.815Z,63.2
2018-09-05T06:44:49.200Z,63.2
2018-09-05T06:45:39.280Z,63.2
2018-09-05T06:46:29.035Z,63.2
2018-09-05T06:47:18.537Z,63.2
2018-09-05T06:48:08.900Z,63.2
2018-09-05T06:48:59.215Z,63.2
2018-09-05T06:49:49.518Z,63.1
2018-09-05T06:50:39.342Z,63.1
2018-09-05T06:51:31.050Z,63.1
2018-09-05T06:52:19.787Z,63.1
2018-09-05T06:53:09.805Z,63.1
2018-09-05T06:53:59.635Z,63.1
2018-09-05T06:54:49.702Z,63.1
2018-09-05T06:55:39.706Z,63.1
2018-09-05T06:56:30.105Z,63.1
2018-09-05T06:57:20.115Z,63.1
2018-09-05T06:58:10.544Z,63.1
2018-09-05T06:58:59.724Z,63.1
2018-09-05T06:59:49.739Z,63.1
2018-09-05T07:00:40.381Z,63.1
2018-09-05T07:01:29.629Z,63.1
2018-09-05T07:02:20.501Z,63.1
2018-09-05T07:03:10.016Z,63
2018-09-05T07:04:01.933Z,63
2018-09-05T07:04:50.694Z,63
2018-09-05T07:05:40.756Z,63
2018-09-05T07:06:30.848Z,63
2018-09-05T07:07:20.650Z,63
2018-09-05T07:08:10.676Z,63
2018-09-05T07:09:01.273Z,63
2018-09-05T07:09:51.390Z,63
2018-09-05T07:10:39.993Z,63
2018-09-05T07:11:30.655Z,63
2018-09-05T07:12:21.280Z,62.9
2018-09-05T07:13:11.338Z,62.9
2018-09-05T07:14:00.861Z,62.9
2018-09-05T07:14:51.196Z,62.9
2018-09-05T07:15:40.773Z,62.9
2018-09-05T07:16:31.056Z,62.9
2018-09-05T07:17:21.863Z,62.9
2018-09-05T07:18:11.468Z,62.9
2018-09-05T07:19:01.219Z,62.9
2018-09-05T07:19:51.578Z,62.9
2018-09-05T07:20:41.630Z,62.9
2018-09-05T07:21:33.757Z,62.9
2018-09-05T07:22:21.515Z,62.9
2018-09-05T07:23:12.177Z,62.9
2018-09-05T07:24:02.160Z,62.9
2018-09-05T07:24:52.739Z,62.9
2018-09-05T07:25:42.022Z,62.8
2018-09-05T07:26:32.094Z,62.8
2018-09-05T07:27:22.188Z,62.8
2018-09-05T07:28:11.868Z,62.8
2018-09-05T07:29:02.299Z,62.8
2018-09-05T07:29:51.051Z,62.8
2018-09-05T07:30:43.397Z,62.8
2018-09-05T07:31:32.504Z,62.8
2018-09-05T07:32:22.834Z,62.8
2018-09-05T07:33:12.594Z,62.8
2018-09-05T07:34:02.394Z,62.8
2018-09-05T07:34:53.069Z,62.8
2018-09-05T07:35:43.999Z,62.8
2018-09-05T07:36:33.227Z,62.8
2018-09-05T07:37:22.735Z,62.8
2018-09-05T07:38:13.644Z,62.8
2018-09-05T07:39:03.072Z,62.8
2018-09-05T07:39:53.658Z,62.8
2018-09-05T07:40:43.175Z,62.8
2018-09-05T07:41:33.534Z,62.8
2018-09-05T07:42:23.321Z,62.7
2018-09-05T09:15:01.509Z,62.3
2018-09-05T09:15:51.337Z,62.4
2018-09-05T09:16:41.403Z,62.4
2018-09-05T09:17:31.470Z,62.5
2018-09-05T09:18:21.808Z,62.6
2018-09-05T09:19:11.855Z,62.6
2018-09-05T09:20:01.669Z,62.6
2018-09-05T09:20:52.258Z,62.7
2018-09-05T09:21:42.275Z,62.8
2018-09-05T09:22:32.376Z,62.8
2018-09-05T09:23:22.475Z,62.8
2018-09-05T09:24:12.257Z,62.9
2018-09-05T09:25:02.295Z,62.9
2018-09-05T09:25:51.482Z,62.9
2018-09-05T09:26:42.445Z,63
2018-09-05T09:27:32.502Z,63.1
2018-09-05T09:28:23.158Z,63.1
2018-09-05T09:29:11.793Z,63.2
2018-09-05T09:30:02.937Z,63.2
2018-09-05T09:30:53.007Z,63.3
2018-09-05T09:31:43.048Z,63.3
2018-09-05T09:32:32.635Z,63.4
2018-09-05T09:33:23.232Z,63.4
2018-09-05T09:34:12.724Z,63.5
2018-09-05T09:35:03.085Z,63.6
2018-09-05T09:35:53.162Z,63.6
2018-09-05T09:36:43.236Z,63.7
2018-09-05T09:37:32.734Z,63.8
2018-09-05T09:38:23.075Z,63.8
2018-09-05T09:39:13.692Z,63.9
2018-09-05T09:40:03.496Z,64
2018-09-05T09:40:53.534Z,64.1
2018-09-05T09:41:43.052Z,64.1
2018-09-05T09:42:33.077Z,64.1
2018-09-05T09:43:24.002Z,64.2
2018-09-05T09:44:13.815Z,64.3
2018-09-05T09:45:03.615Z,64.3
2018-09-05T09:45:53.956Z,64.4
2018-09-05T09:46:44.679Z,64.4
2018-09-05T09:47:33.800Z,64.4
2018-09-05T09:48:24.145Z,64.5
2018-09-05T09:49:14.206Z,64.6
2018-09-05T09:50:04.533Z,64.6
2018-09-05T09:50:53.466Z,64.7
2018-09-05T09:51:44.105Z,64.7
2018-09-05T09:52:34.217Z,64.8
2018-09-05T09:53:24.258Z,64.8
2018-09-05T09:54:13.718Z,64.9
2018-09-05T09:55:04.366Z,64.9
2018-09-05T09:55:54.552Z,65
2018-09-05T09:56:45.277Z,65.1
2018-09-05T09:57:34.287Z,65.1
2018-09-05T09:58:24.939Z,65.2
2018-09-05T09:59:14.529Z,65.2
2018-09-05T10:00:05.332Z,65.3
2018-09-05T10:00:54.570Z,65.3
2018-09-05T10:01:45.143Z,65.4
2018-09-05T10:02:34.245Z,65.4
2018-09-05T10:03:26.432Z,65.4
2018-09-05T10:04:15.653Z,65.5
2018-09-05T10:05:05.175Z,65.6
2018-09-05T10:05:55.224Z,65.6
2018-09-05T10:06:45.561Z,65.7
2018-09-05T10:07:35.184Z,65.7
2018-09-05T10:08:25.980Z,65.8
2018-09-05T10:09:15.477Z,65.8
2018-09-05T10:10:08.403Z,65.9
2018-09-05T10:10:55.924Z,65.9
2018-09-05T10:11:46.207Z,65.9
2018-09-05T10:12:36.017Z,66.1
2018-09-05T10:13:26.102Z,66.1
2018-09-05T10:14:16.187Z,66.1
2018-09-05T10:15:06.417Z,66.1
2018-09-05T10:15:56.808Z,66.2
2018-09-05T10:16:46.902Z,66.3
2018-09-05T10:17:36.465Z,66.3
2018-09-05T10:18:26.478Z,66.4
2018-09-05T10:19:16.554Z,66.4
2018-09-05T10:20:06.681Z,66.5
2018-09-05T10:20:57.463Z,66.6
2018-09-05T10:21:46.163Z,66.6
2018-09-05T10:22:37.804Z,66.6
2018-09-05T10:23:26.323Z,66.8
2018-09-05T10:24:16.931Z,66.8
2018-09-05T10:25:06.708Z,66.8
2018-09-05T10:25:57.443Z,66.9
2018-09-05T10:26:46.561Z,66.9
2018-09-05T10:27:37.496Z,66.9
2018-09-05T10:28:26.697Z,66.9
2018-09-05T10:29:17.318Z,67
2018-09-05T10:30:07.071Z,67.1
2018-09-05T10:30:57.753Z,67.1
2018-09-05T10:31:47.977Z,67.2
2018-09-05T10:32:37.557Z,67.2
2018-09-05T10:33:27.407Z,67.3
2018-09-05T10:34:17.400Z,67.4
2018-09-05T10:35:07.769Z,67.4
2018-09-05T10:35:57.558Z,67.4
2018-09-05T10:36:47.895Z,67.4
2018-09-05T10:37:37.695Z,67.6
2018-09-05T10:38:27.830Z,67.6
2018-09-05T10:39:18.185Z,67.6
2018-09-05T10:40:08.128Z,67.6
2018-09-05T10:40:58.200Z,67.7
2018-09-05T10:41:47.999Z,67.8
2018-09-05T10:42:38.920Z,67.8
2018-09-05T10:43:28.924Z,67.8
2018-09-05T10:44:19.394Z,67.9
2018-09-05T10:45:07.980Z,67.9
2018-09-05T10:45:58.622Z,68
2018-09-05T10:46:48.125Z,68.1
2018-09-05T10:47:38.182Z,68.1
2018-09-05T10:48:28.519Z,68.2
2018-09-05T10:49:18.597Z,68.2
2018-09-05T10:50:08.640Z,68.2
2018-09-05T10:50:58.714Z,68.3
2018-09-05T10:51:49.859Z,68.3
2018-09-05T10:52:38.806Z,68.4
2018-09-05T10:53:29.487Z,68.4
2018-09-05T10:54:19.349Z,68.5
2018-09-05T10:55:09.350Z,68.5
2018-09-05T10:55:59.691Z,68.6
2018-09-05T10:56:48.618Z,68.6
2018-09-05T10:57:39.739Z,68.7
2018-09-05T10:58:29.879Z,68.8
2018-09-05T10:59:19.362Z,68.8
2018-09-05T11:00:09.749Z,68.9
2018-09-05T11:00:59.751Z,68.9
2018-09-05T11:01:50.135Z,68.9
2018-09-05T11:02:39.905Z,68.9
2018-09-05T11:03:30.221Z,69
2018-09-05T11:04:20.048Z,69.1
2018-09-05T11:05:09.814Z,69.1
2018-09-05T11:06:00.172Z,69.1
2018-09-05T11:06:49.968Z,69.1
2018-09-05T11:07:40.031Z,69.2
2018-09-05T11:08:30.904Z,69.3
2018-09-05T11:09:20.473Z,69.3
2018-09-05T11:10:09.948Z,69.4
2018-09-05T11:11:00.933Z,69.4
2018-09-05T11:11:50.634Z,69.4
2018-09-05T11:12:40.675Z,69.4
2018-09-05T11:13:30.476Z,69.5
2018-09-05T11:14:21.107Z,69.5
2018-09-05T11:15:10.335Z,69.6
2018-09-05T11:16:00.382Z,69.6
2018-09-05T11:16:50.724Z,69.6
2018-09-05T11:17:41.674Z,69.7
2018-09-05T11:18:30.620Z,69.8
2018-09-05T11:19:20.905Z,69.8
2018-09-05T11:20:11.002Z,69.8
2018-09-05T11:21:01.356Z,69.9
2018-09-05T11:21:51.222Z,69.9
2018-09-05T11:22:41.482Z,69.9
2018-09-05T11:23:31.267Z,69.9
2018-09-05T11:24:21.572Z,70
2018-09-05T11:25:11.962Z,70.1
2018-09-05T11:26:01.455Z,70.1
2018-09-05T11:26:52.092Z,70.1
2018-09-05T11:27:42.217Z,70.2
2018-09-05T11:28:31.082Z,70.2
2018-09-05T11:29:22.005Z,70.2
2018-09-05T11:30:11.795Z,70.2
2018-09-05T11:31:02.390Z,70.2
2018-09-05T11:31:51.922Z,70.2
2018-09-05T11:32:42.241Z,70.3
2018-09-05T11:33:32.295Z,70.3
2018-09-05T11:34:22.641Z,70.3
2018-09-05T11:35:12.459Z,70.3
2018-09-05T11:36:02.787Z,70.3
2018-09-05T11:36:53.110Z,70.3
2018-09-05T11:37:42.352Z,70.3
2018-09-05T11:38:32.974Z,70.3
2018-09-05T11:39:23.036Z,70.4
2018-09-05T11:40:11.980Z,70.4
2018-09-05T11:41:02.629Z,70.4
2018-09-05T11:41:52.382Z,70.4
2018-09-05T11:42:42.713Z,70.5
2018-09-05T11:43:33.091Z,70.5
2018-09-05T11:44:23.115Z,70.6
2018-09-05T11:45:13.473Z,70.6
2018-09-05T11:46:03.594Z,70.6
2018-09-05T11:46:53.063Z,70.7
2018-09-05T11:47:44.088Z,70.7
2018-09-05T11:48:33.815Z,70.7
2018-09-05T11:49:23.595Z,70.8
2018-09-05T11:50:14.143Z,70.8
2018-09-05T11:51:03.420Z,70.8
2018-09-05T11:51:53.841Z,70.8
2018-09-05T11:52:43.530Z,70.9
2018-09-05T11:53:34.174Z,70.9
2018-09-05T11:54:23.882Z,70.9
2018-09-05T11:55:14.578Z,70.9
2018-09-05T11:56:04.459Z,70.9
2018-09-05T11:56:53.860Z,70.9
2018-09-05T11:57:44.423Z,70.9
2018-09-05T11:58:34.305Z,70.9
2018-09-05T11:59:24.381Z,71
2018-09-05T12:00:14.429Z,71
2018-09-05T12:01:04.532Z,71
2018-09-05T12:01:54.585Z,71
2018-09-05T12:02:44.692Z,71.1
2018-09-05T12:03:34.956Z,71.1
2018-09-05T12:04:24.740Z,71.1
2018-09-05T12:05:15.179Z,71.1
2018-09-05T12:06:05.258Z,71.1
2018-09-05T12:06:55.231Z,71.2
2018-09-05T12:07:45.252Z,71.2
2018-09-05T12:08:35.079Z,71.3
2018-09-05T12:09:24.633Z,71.3
2018-09-05T12:10:15.249Z,71.3
2018-09-05T12:11:05.021Z,71.3
2018-09-05T12:11:55.086Z,71.3
2018-09-05T12:12:45.083Z,71.3
2018-09-05T12:13:35.726Z,71.3
2018-09-05T12:14:25.500Z,71.4
2018-09-05T12:15:15.850Z,71.4
2018-09-05T12:16:05.888Z,71.4
2018-09-05T12:16:55.991Z,71.4
2018-09-05T12:17:46.036Z,71.4
2018-09-05T12:18:36.438Z,71.5
2018-09-05T12:19:25.924Z,71.5
2018-09-05T12:20:16.283Z,71.5
2018-09-05T12:21:05.855Z,71.6
2018-09-05T12:21:55.868Z,71.6
2018-09-05T12:22:46.446Z,71.6
2018-09-05T12:23:36.175Z,71.6
2018-09-05T12:24:26.315Z,71.6
2018-09-05T12:25:16.359Z,71.6
2018-09-05T12:26:06.430Z,71.6
2018-09-05T12:26:56.812Z,71.6
2018-09-05T12:27:46.017Z,71.6
2018-09-05T12:28:36.602Z,71.6
2018-09-05T12:29:27.257Z,71.7
2018-09-05T12:30:16.195Z,71.7
2018-09-05T12:31:06.574Z,71.7
2018-09-05T12:31:56.573Z,71.8
2018-09-05T12:32:47.266Z,71.7
2018-09-05T12:33:36.973Z,71.8
2018-09-05T12:34:27.069Z,71.8
2018-09-05T12:35:16.434Z,71.8
2018-09-05T12:36:06.612Z,71.8
2018-09-05T12:36:56.767Z,71.8
2018-09-05T12:37:47.602Z,71.8
2018-09-05T12:38:37.385Z,71.8
2018-09-05T12:39:27.472Z,71.8
2018-09-05T12:40:17.552Z,71.8
2018-09-05T12:41:08.095Z,71.8
2018-09-05T12:41:57.928Z,71.8
2018-09-05T12:42:47.716Z,71.8
2018-09-05T12:43:37.217Z,71.9
2018-09-05T12:44:27.854Z,71.9
2018-09-05T12:45:17.916Z,71.9
2018-09-05T12:46:07.951Z,71.9
2018-09-05T12:46:57.757Z,71.8
2018-09-05T12:47:48.426Z,71.8
2018-09-05T12:48:37.616Z,71.9
2018-09-05T12:49:27.953Z,71.9
2018-09-05T12:50:18.319Z,71.8
2018-09-05T12:51:07.612Z,71.9
2018-09-05T12:51:58.716Z,71.9
2018-09-05T12:52:48.198Z,71.9
2018-09-05T12:53:38.000Z,71.9
2018-09-05T12:54:28.623Z,71.9
2018-09-05T12:55:18.390Z,71.9
2018-09-05T12:56:09.044Z,71.9
2018-09-05T12:56:59.138Z,71.9
2018-09-05T12:57:48.875Z,71.9
2018-09-05T12:58:38.948Z,71.9
2018-09-05T12:59:29.833Z,71.9
2018-09-05T13:00:18.583Z,71.8
2018-09-05T13:01:09.461Z,71.8
2018-09-05T13:01:59.181Z,71.8
2018-09-05T13:02:49.272Z,71.8
2018-09-05T13:03:39.567Z,71.8
2018-09-05T13:04:29.741Z,71.8
2018-09-05T13:05:19.242Z,71.8
2018-09-05T13:06:09.875Z,71.8
2018-09-05T13:06:59.930Z,71.8
2018-09-05T13:07:49.235Z,71.8
2018-09-05T13:08:39.769Z,71.8
2018-09-05T13:09:30.121Z,71.8
2018-09-05T13:10:20.161Z,71.8
2018-09-05T13:11:09.436Z,71.8
2018-09-05T13:12:00.310Z,71.8
2018-09-05T13:12:49.938Z,71.8
2018-09-05T13:13:40.470Z,71.8
2018-09-05T13:14:29.347Z,71.8
2018-09-05T13:15:19.955Z,71.8
2018-09-05T13:16:10.314Z,71.8